sensor_id;sensor_type;location;lat;lon;timestamp;pressure;altitude;pressure_sealevel;temperature;humidity
10348;BME280;5220;43.192;23.284;2023-06-26T00:01:42;96696.28;;;22.55;100.00
10348;BME280;5220;43.192;23.284;2023-06-26T00:04:09;96694.44;;;22.56;100.00
10348;BME280;5220;43.192;23.284;2023-06-26T00:06:40;96696.28;;;22.55;100.00
10348;BME280;5220;43.192;23.284;2023-06-26T00:09:07;96698.75;;;22.57;100.00
10348;BME280;5220;43.192;23.284;2023-06-26T00:11:33;96698.09;;;22.55;100.00
10348;BME280;5220;43.192;23.284;2023-06-26T00:14:02;96694.81;;;22.52;100.00
10348;BME280;5220;43.192;23.284;2023-06-26T00:16:28;96696.75;;;22.37;100.00
10348;BME280;5220;43.192;23.284;2023-06-26T00:18:56;96699.03;;;22.40;100.00
10348;BME280;5220;43.192;23.284;2023-06-26T00:21:24;96692.06;;;22.39;100.00
10348;BME280;5220;43.192;23.284;2023-06-26T00:23:50;96695.94;;;22.37;100.00
10348;BME280;5220;43.192;23.284;2023-06-26T00:26:17;96701.31;;;22.22;100.00
10348;BME280;5220;43.192;23.284;2023-06-26T00:28:44;96690.00;;;22.14;100.00
10348;BME280;5220;43.192;23.284;2023-06-26T00:31:12;96688.13;;;22.08;100.00
10348;BME280;5220;43.192;23.284;2023-06-26T00:33:39;96690.34;;;22.04;100.00
10348;BME280;5220;43.192;23.284;2023-06-26T00:36:05;96684.56;;;21.79;100.00
10348;BME280;5220;43.192;23.284;2023-06-26T00:38:32;96693.22;;;21.88;100.00
10348;BME280;5220;43.192;23.284;2023-06-26T00:40:59;96692.44;;;21.73;100.00
10348;BME280;5220;43.192;23.284;2023-06-26T00:43:25;96701.69;;;21.83;100.00
10348;BME280;5220;43.192;23.284;2023-06-26T00:45:52;96688.91;;;21.87;100.00
10348;BME280;5220;43.192;23.284;2023-06-26T00:48:20;96686.47;;;21.85;100.00
10348;BME280;5220;43.192;23.284;2023-06-26T00:50:47;96686.75;;;21.90;100.00
10348;BME280;5220;43.192;23.284;2023-06-26T00:53:14;96684.53;;;21.94;100.00
10348;BME280;5220;43.192;23.284;2023-06-26T00:55:41;96681.06;;;21.93;100.00
10348;BME280;5220;43.192;23.284;2023-06-26T00:58:07;96675.31;;;21.90;100.00
10348;BME280;5220;43.192;23.284;2023-06-26T01:00:34;96676.97;;;21.91;100.00
10348;BME280;5220;43.192;23.284;2023-06-26T01:03:01;96678.59;;;21.92;100.00
10348;BME280;5220;43.192;23.284;2023-06-26T01:05:29;96677.97;;;21.90;100.00
10348;BME280;5220;43.192;23.284;2023-06-26T01:07:56;96675.94;;;21.92;100.00
10348;BME280;5220;43.192;23.284;2023-06-26T01:10:24;96675.66;;;21.87;100.00
10348;BME280;5220;43.192;23.284;2023-06-26T01:12:53;96664.06;;;21.88;100.00
10348;BME280;5220;43.192;23.284;2023-06-26T01:15:20;96665.16;;;21.93;100.00
10348;BME280;5220;43.192;23.284;2023-06-26T01:17:47;96662.81;;;21.84;100.00
10348;BME280;5220;43.192;23.284;2023-06-26T01:20:14;96661.91;;;21.91;100.00
10348;BME280;5220;43.192;23.284;2023-06-26T01:22:48;96657.41;;;21.92;100.00
10348;BME280;5220;43.192;23.284;2023-06-26T01:25:23;96649.44;;;21.92;100.00
10348;BME280;5220;43.192;23.284;2023-06-26T01:27:57;96657.94;;;21.87;100.00
10348;BME280;5220;43.192;23.284;2023-06-26T01:30:25;96659.72;;;21.80;100.00
10348;BME280;5220;43.192;23.284;2023-06-26T01:32:52;96653.22;;;21.83;100.00
10348;BME280;5220;43.192;23.284;2023-06-26T01:35:19;96651.00;;;21.86;100.00
10348;BME280;5220;43.192;23.284;2023-06-26T01:37:46;96652.84;;;21.86;100.00
10348;BME280;5220;43.192;23.284;2023-06-26T01:40:12;96645.72;;;21.86;100.00
10348;BME280;5220;43.192;23.284;2023-06-26T01:42:39;96654.47;;;21.87;100.00
10348;BME280;5220;43.192;23.284;2023-06-26T01:45:13;96645.09;;;21.84;100.00
10348;BME280;5220;43.192;23.284;2023-06-26T01:47:44;96647.28;;;21.81;100.00
10348;BME280;5220;43.192;23.284;2023-06-26T01:50:17;96653.13;;;21.76;100.00
10348;BME280;5220;43.192;23.284;2023-06-26T01:53:02;96644.19;;;21.77;100.00
10348;BME280;5220;43.192;23.284;2023-06-26T01:55:32;96657.66;;;21.76;100.00
10348;BME280;5220;43.192;23.284;2023-06-26T01:58:01;96648.22;;;21.73;100.00
10348;BME280;5220;43.192;23.284;2023-06-26T02:00:29;96646.41;;;21.74;100.00
10348;BME280;5220;43.192;23.284;2023-06-26T02:02:57;96648.22;;;21.73;100.00
10348;BME280;5220;43.192;23.284;2023-06-26T02:05:24;96648.59;;;21.70;100.00
10348;BME280;5220;43.192;23.284;2023-06-26T02:07:51;96648.19;;;21.67;100.00
10348;BME280;5220;43.192;23.284;2023-06-26T02:10:17;96647.34;;;21.66;100.00
10348;BME280;5220;43.192;23.284;2023-06-26T02:12:45;96644.25;;;21.63;100.00
10348;BME280;5220;43.192;23.284;2023-06-26T02:15:12;96647.28;;;21.60;100.00
10348;BME280;5220;43.192;23.284;2023-06-26T02:17:40;96651.13;;;21.57;100.00
10348;BME280;5220;43.192;23.284;2023-06-26T02:20:08;96656.16;;;21.52;100.00
10348;BME280;5220;43.192;23.284;2023-06-26T02:22:36;96655.53;;;21.50;100.00
10348;BME280;5220;43.192;23.284;2023-06-26T02:25:03;96651.44;;;21.48;100.00
10348;BME280;5220;43.192;23.284;2023-06-26T02:27:30;96647.50;;;21.43;100.00
10348;BME280;5220;43.192;23.284;2023-06-26T02:29:57;96644.88;;;21.43;100.00
10348;BME280;5220;43.192;23.284;2023-06-26T02:32:24;96654.84;;;21.41;100.00
10348;BME280;5220;43.192;23.284;2023-06-26T02:34:52;96654.84;;;21.41;100.00
10348;BME280;5220;43.192;23.284;2023-06-26T02:37:19;96660.41;;;21.17;100.00
10348;BME280;5220;43.192;23.284;2023-06-26T02:39:46;96655.03;;;21.25;100.00
10348;BME280;5220;43.192;23.284;2023-06-26T02:42:13;96661.16;;;21.26;100.00
10348;BME280;5220;43.192;23.284;2023-06-26T02:44:40;96660.34;;;21.25;100.00
10348;BME280;5220;43.192;23.284;2023-06-26T02:47:07;96668.91;;;21.27;100.00
10348;BME280;5220;43.192;23.284;2023-06-26T02:49:34;96656.69;;;21.26;100.00
10348;BME280;5220;43.192;23.284;2023-06-26T02:52:03;96658.72;;;21.10;100.00
10348;BME280;5220;43.192;23.284;2023-06-26T02:54:30;96661.25;;;21.18;100.00
10348;BME280;5220;43.192;23.284;2023-06-26T02:56:58;96664.72;;;21.18;100.00
10348;BME280;5220;43.192;23.284;2023-06-26T02:59:25;96664.53;;;21.20;100.00
10348;BME280;5220;43.192;23.284;2023-06-26T03:01:52;96663.97;;;21.24;100.00
10348;BME280;5220;43.192;23.284;2023-06-26T03:04:19;96676.75;;;21.21;100.00
10348;BME280;5220;43.192;23.284;2023-06-26T03:06:46;96668.94;;;21.13;100.00
10348;BME280;5220;43.192;23.284;2023-06-26T03:09:15;96672.66;;;21.18;100.00
10348;BME280;5220;43.192;23.284;2023-06-26T03:11:42;96673.66;;;21.17;100.00
10348;BME280;5220;43.192;23.284;2023-06-26T03:14:09;96671.09;;;21.24;100.00
10348;BME280;5220;43.192;23.284;2023-06-26T03:16:36;96676.84;;;21.27;100.00
10348;BME280;5220;43.192;23.284;2023-06-26T03:19:03;96684.69;;;21.21;100.00
10348;BME280;5220;43.192;23.284;2023-06-26T03:21:30;96679.09;;;21.30;100.00
10348;BME280;5220;43.192;23.284;2023-06-26T03:23:57;96671.38;;;21.29;100.00
10348;BME280;5220;43.192;23.284;2023-06-26T03:26:25;96675.09;;;21.34;100.00
10348;BME280;5220;43.192;23.284;2023-06-26T03:28:53;96668.22;;;21.40;100.00
10348;BME280;5220;43.192;23.284;2023-06-26T03:31:20;96670.88;;;21.40;100.00
10348;BME280;5220;43.192;23.284;2023-06-26T03:33:47;96679.28;;;21.43;100.00
10348;BME280;5220;43.192;23.284;2023-06-26T03:36:14;96680.72;;;21.46;100.00
10348;BME280;5220;43.192;23.284;2023-06-26T03:38:41;96680.19;;;21.51;100.00
10348;BME280;5220;43.192;23.284;2023-06-26T03:41:07;96681.25;;;21.56;100.00
10348;BME280;5220;43.192;23.284;2023-06-26T03:43:36;96684.16;;;21.61;100.00
10348;BME280;5220;43.192;23.284;2023-06-26T03:46:02;96677.47;;;21.65;100.00
10348;BME280;5220;43.192;23.284;2023-06-26T03:48:29;96671.44;;;21.71;100.00
10348;BME280;5220;43.192;23.284;2023-06-26T03:50:56;96680.91;;;21.80;100.00
10348;BME280;5220;43.192;23.284;2023-06-26T03:53:22;96677.69;;;21.85;100.00
10348;BME280;5220;43.192;23.284;2023-06-26T03:55:49;96673.66;;;21.89;100.00
10348;BME280;5220;43.192;23.284;2023-06-26T03:58:16;96680.50;;;21.98;100.00
10348;BME280;5220;43.192;23.284;2023-06-26T04:00:44;96679.69;;;21.98;100.00
10348;BME280;5220;43.192;23.284;2023-06-26T04:03:12;96679.31;;;22.01;100.00
10348;BME280;5220;43.192;23.284;2023-06-26T04:05:39;96687.69;;;22.04;100.00
10348;BME280;5220;43.192;23.284;2023-06-26T04:08:05;96682.03;;;22.07;100.00
10348;BME280;5220;43.192;23.284;2023-06-26T04:10:32;96677.50;;;22.08;100.00
10348;BME280;5220;43.192;23.284;2023-06-26T04:12:59;96677.47;;;22.01;100.00
10348;BME280;5220;43.192;23.284;2023-06-26T04:15:26;96676.91;;;22.06;100.00
10348;BME280;5220;43.192;23.284;2023-06-26T04:17:54;96671.03;;;22.10;100.00
10348;BME280;5220;43.192;23.284;2023-06-26T04:20:20;96674.25;;;22.06;100.00
10348;BME280;5220;43.192;23.284;2023-06-26T04:22:47;96679.59;;;22.12;100.00
10348;BME280;5220;43.192;23.284;2023-06-26T04:25:14;96680.44;;;22.13;100.00
10348;BME280;5220;43.192;23.284;2023-06-26T04:27:40;96672.09;;;22.16;100.00
10348;BME280;5220;43.192;23.284;2023-06-26T04:30:08;96675.19;;;22.19;100.00
10348;BME280;5220;43.192;23.284;2023-06-26T04:32:35;96676.81;;;22.20;100.00
10348;BME280;5220;43.192;23.284;2023-06-26T04:35:03;96670.34;;;22.23;100.00
10348;BME280;5220;43.192;23.284;2023-06-26T04:37:30;96685.84;;;22.26;100.00
10348;BME280;5220;43.192;23.284;2023-06-26T04:39:57;96680.78;;;22.31;100.00
10348;BME280;5220;43.192;23.284;2023-06-26T04:42:23;96668.38;;;22.31;100.00
10348;BME280;5220;43.192;23.284;2023-06-26T04:44:50;96670.41;;;22.36;100.00
10348;BME280;5220;43.192;23.284;2023-06-26T04:47:17;96684.94;;;22.40;100.00
10348;BME280;5220;43.192;23.284;2023-06-26T04:49:43;96676.81;;;22.41;100.00
10348;BME280;5220;43.192;23.284;2023-06-26T04:52:12;96672.75;;;22.45;100.00
10348;BME280;5220;43.192;23.284;2023-06-26T04:54:39;96677.47;;;22.50;100.00
10348;BME280;5220;43.192;23.284;2023-06-26T04:57:06;96674.66;;;22.58;100.00
10348;BME280;5220;43.192;23.284;2023-06-26T04:59:34;96680.50;;;22.68;100.00
10348;BME280;5220;43.192;23.284;2023-06-26T05:02:01;96687.88;;;22.73;100.00
10348;BME280;5220;43.192;23.284;2023-06-26T05:04:28;96692.03;;;22.82;100.00
10348;BME280;5220;43.192;23.284;2023-06-26T05:06:55;96688.59;;;22.88;100.00
10348;BME280;5220;43.192;23.284;2023-06-26T05:09:23;96689.03;;;22.91;100.00
10348;BME280;5220;43.192;23.284;2023-06-26T05:11:49;96698.41;;;22.94;100.00
10348;BME280;5220;43.192;23.284;2023-06-26T05:14:16;96704.56;;;22.94;100.00
10348;BME280;5220;43.192;23.284;2023-06-26T05:16:43;96706.81;;;22.97;100.00
10348;BME280;5220;43.192;23.284;2023-06-26T05:19:10;96706.03;;;23.03;100.00
10348;BME280;5220;43.192;23.284;2023-06-26T05:21:36;96709.72;;;23.09;100.00
10348;BME280;5220;43.192;23.284;2023-06-26T05:24:05;96708.34;;;23.13;100.00
10348;BME280;5220;43.192;23.284;2023-06-26T05:26:34;96711.81;;;23.20;100.00
10348;BME280;5220;43.192;23.284;2023-06-26T05:29:01;96710.41;;;23.24;100.00
10348;BME280;5220;43.192;23.284;2023-06-26T05:31:30;96713.50;;;23.28;100.00
10348;BME280;5220;43.192;23.284;2023-06-26T05:34:00;96719.84;;;23.33;100.00
10348;BME280;5220;43.192;23.284;2023-06-26T05:36:29;96715.97;;;23.36;100.00
10348;BME280;5220;43.192;23.284;2023-06-26T05:38:58;96717.25;;;23.40;100.00
10348;BME280;5220;43.192;23.284;2023-06-26T05:41:25;96725.84;;;23.42;100.00
10348;BME280;5220;43.192;23.284;2023-06-26T05:43:53;96729.56;;;23.47;100.00
10348;BME280;5220;43.192;23.284;2023-06-26T05:46:20;96737.34;;;23.55;100.00
10348;BME280;5220;43.192;23.284;2023-06-26T05:48:47;96724.75;;;23.71;100.00
10348;BME280;5220;43.192;23.284;2023-06-26T05:51:14;96725.19;;;23.81;100.00
10348;BME280;5220;43.192;23.284;2023-06-26T05:53:42;96729.69;;;23.87;100.00
10348;BME280;5220;43.192;23.284;2023-06-26T05:56:09;96730.09;;;23.84;100.00
10348;BME280;5220;43.192;23.284;2023-06-26T05:58:36;96726.00;;;23.81;100.00
10348;BME280;5220;43.192;23.284;2023-06-26T06:01:05;96736.44;;;23.89;100.00
10348;BME280;5220;43.192;23.284;2023-06-26T06:03:32;96735.44;;;23.90;100.00
10348;BME280;5220;43.192;23.284;2023-06-26T06:05:58;96741.38;;;23.92;100.00
10348;BME280;5220;43.192;23.284;2023-06-26T06:08:25;96735.22;;;23.92;100.00
10348;BME280;5220;43.192;23.284;2023-06-26T06:10:52;96740.53;;;23.92;100.00
10348;BME280;5220;43.192;23.284;2023-06-26T06:13:19;96741.56;;;23.91;100.00
10348;BME280;5220;43.192;23.284;2023-06-26T06:15:46;96739.31;;;23.88;100.00
10348;BME280;5220;43.192;23.284;2023-06-26T06:18:14;96741.56;;;23.91;100.00
10348;BME280;5220;43.192;23.284;2023-06-26T06:20:41;96742.78;;;23.95;100.00
10348;BME280;5220;43.192;23.284;2023-06-26T06:23:07;96735.47;;;23.97;100.00
10348;BME280;5220;43.192;23.284;2023-06-26T06:25:34;96733.81;;;23.96;100.00
10348;BME280;5220;43.192;23.284;2023-06-26T06:28:01;96728.91;;;23.99;100.00
10348;BME280;5220;43.192;23.284;2023-06-26T06:30:28;96728.50;;;24.02;100.00
10348;BME280;5220;43.192;23.284;2023-06-26T06:32:55;96730.97;;;24.04;100.00
10348;BME280;5220;43.192;23.284;2023-06-26T06:35:23;96738.53;;;24.07;100.00
10348;BME280;5220;43.192;23.284;2023-06-26T06:37:50;96734.03;;;24.07;100.00
10348;BME280;5220;43.192;23.284;2023-06-26T06:40:16;96733.84;;;24.09;100.00
10348;BME280;5220;43.192;23.284;2023-06-26T06:42:43;96732.66;;;24.12;100.00
10348;BME280;5220;43.192;23.284;2023-06-26T06:45:10;96737.16;;;24.11;100.00
10348;BME280;5220;43.192;23.284;2023-06-26T06:47:37;96739.56;;;24.06;100.00
10348;BME280;5220;43.192;23.284;2023-06-26T06:50:04;96741.22;;;24.14;100.00
10348;BME280;5220;43.192;23.284;2023-06-26T06:52:37;96741.88;;;24.16;100.00
10348;BME280;5220;43.192;23.284;2023-06-26T06:55:07;96739.22;;;24.22;100.00
10348;BME280;5220;43.192;23.284;2023-06-26T06:57:35;96736.78;;;24.27;100.00
10348;BME280;5220;43.192;23.284;2023-06-26T07:00:04;96742.50;;;24.31;100.00
10348;BME280;5220;43.192;23.284;2023-06-26T07:02:34;96738.03;;;24.38;100.00
10348;BME280;5220;43.192;23.284;2023-06-26T07:05:00;96728.41;;;24.43;100.00
10348;BME280;5220;43.192;23.284;2023-06-26T07:07:29;96732.28;;;24.34;100.00
10348;BME280;5220;43.192;23.284;2023-06-26T07:09:58;96733.69;;;24.17;100.00
10348;BME280;5220;43.192;23.284;2023-06-26T07:12:25;96736.56;;;24.35;100.00
10348;BME280;5220;43.192;23.284;2023-06-26T07:14:51;96725.94;;;24.42;100.00
10348;BME280;5220;43.192;23.284;2023-06-26T07:17:19;96738.22;;;24.43;100.00
10348;BME280;5220;43.192;23.284;2023-06-26T07:19:46;96732.91;;;24.49;100.00
10348;BME280;5220;43.192;23.284;2023-06-26T07:22:13;96743.75;;;24.54;100.00
10348;BME280;5220;43.192;23.284;2023-06-26T07:24:39;96736.78;;;24.60;100.00
10348;BME280;5220;43.192;23.284;2023-06-26T07:27:08;96737.81;;;24.66;100.00
10348;BME280;5220;43.192;23.284;2023-06-26T07:29:35;96738.22;;;24.76;100.00
10348;BME280;5220;43.192;23.284;2023-06-26T07:32:02;96730.66;;;24.86;100.00
10348;BME280;5220;43.192;23.284;2023-06-26T07:34:28;96725.94;;;25.01;100.00
10348;BME280;5220;43.192;23.284;2023-06-26T07:36:55;96732.50;;;25.05;100.00
10348;BME280;5220;43.192;23.284;2023-06-26T07:39:22;96733.09;;;24.81;100.00
10348;BME280;5220;43.192;23.284;2023-06-26T07:41:48;96734.34;;;24.98;100.00
10348;BME280;5220;43.192;23.284;2023-06-26T07:44:17;96738.03;;;24.97;100.00
10348;BME280;5220;43.192;23.284;2023-06-26T07:46:43;96733.13;;;24.87;100.00
10348;BME280;5220;43.192;23.284;2023-06-26T07:49:11;96742.13;;;24.93;100.00
10348;BME280;5220;43.192;23.284;2023-06-26T07:51:37;96736.19;;;24.91;100.00
10348;BME280;5220;43.192;23.284;2023-06-26T07:54:04;96733.94;;;24.88;100.00
10348;BME280;5220;43.192;23.284;2023-06-26T07:56:35;96739.66;;;24.98;100.00
10348;BME280;5220;43.192;23.284;2023-06-26T07:59:01;96742.47;;;25.23;100.00
10348;BME280;5220;43.192;23.284;2023-06-26T08:01:31;96743.69;;;25.40;100.00
10348;BME280;5220;43.192;23.284;2023-06-26T08:03:57;96749.88;;;25.01;100.00
10348;BME280;5220;43.192;23.284;2023-06-26T08:06:24;96749.81;;;25.40;100.00
10348;BME280;5220;43.192;23.284;2023-06-26T08:08:50;96750.41;;;25.55;100.00
10348;BME280;5220;43.192;23.284;2023-06-26T08:11:17;96742.63;;;25.54;100.00
10348;BME280;5220;43.192;23.284;2023-06-26T08:13:44;96753.25;;;25.60;100.00
10348;BME280;5220;43.192;23.284;2023-06-26T08:16:11;96750.00;;;25.58;100.00
10348;BME280;5220;43.192;23.284;2023-06-26T08:18:39;96750.59;;;25.47;100.00
10348;BME280;5220;43.192;23.284;2023-06-26T08:21:05;96752.66;;;25.45;100.00
10348;BME280;5220;43.192;23.284;2023-06-26T08:23:32;96753.09;;;25.42;100.00
10348;BME280;5220;43.192;23.284;2023-06-26T08:25:59;96749.00;;;25.53;100.00
10348;BME280;5220;43.192;23.284;2023-06-26T08:28:26;96756.69;;;25.74;100.00
10348;BME280;5220;43.192;23.284;2023-06-26T08:30:52;96755.56;;;25.95;100.00
10348;BME280;5220;43.192;23.284;2023-06-26T08:33:20;96751.97;;;26.14;100.00
10348;BME280;5220;43.192;23.284;2023-06-26T08:35:48;96758.66;;;26.36;100.00
10348;BME280;5220;43.192;23.284;2023-06-26T08:38:14;96750.81;;;26.41;100.00
10348;BME280;5220;43.192;23.284;2023-06-26T08:40:41;96744.59;;;26.47;100.00
10348;BME280;5220;43.192;23.284;2023-06-26T08:43:08;96750.09;;;26.59;100.00
10348;BME280;5220;43.192;23.284;2023-06-26T08:45:35;96751.38;;;26.74;100.00
10348;BME280;5220;43.192;23.284;2023-06-26T08:48:03;96751.22;;;26.69;100.00
10348;BME280;5220;43.192;23.284;2023-06-26T08:50:34;96749.31;;;26.52;100.00
10348;BME280;5220;43.192;23.284;2023-06-26T08:53:05;96755.25;;;26.79;100.00
10348;BME280;5220;43.192;23.284;2023-06-26T08:55:38;96750.13;;;26.84;100.00
10348;BME280;5220;43.192;23.284;2023-06-26T08:58:07;96756.31;;;26.78;100.00
10348;BME280;5220;43.192;23.284;2023-06-26T09:00:34;96748.34;;;26.96;100.00
10348;BME280;5220;43.192;23.284;2023-06-26T09:03:03;96749.66;;;26.62;100.00
10348;BME280;5220;43.192;23.284;2023-06-26T09:05:30;96753.25;;;26.99;100.00
10348;BME280;5220;43.192;23.284;2023-06-26T09:07:58;96744.69;;;27.15;100.00
10348;BME280;5220;43.192;23.284;2023-06-26T09:10:26;96749.34;;;27.01;100.00
10348;BME280;5220;43.192;23.284;2023-06-26T09:12:55;96755.09;;;26.98;100.00
10348;BME280;5220;43.192;23.284;2023-06-26T09:15:23;96744.41;;;26.73;100.00
10348;BME280;5220;43.192;23.284;2023-06-26T09:17:56;96744.19;;;26.75;100.00
10348;BME280;5220;43.192;23.284;2023-06-26T09:20:27;96741.81;;;26.92;100.00
10348;BME280;5220;43.192;23.284;2023-06-26T09:22:54;96737.88;;;26.94;100.00
10348;BME280;5220;43.192;23.284;2023-06-26T09:25:22;96736.19;;;27.00;100.00
10348;BME280;5220;43.192;23.284;2023-06-26T09:27:50;96738.41;;;26.78;100.00
10348;BME280;5220;43.192;23.284;2023-06-26T09:30:18;96739.88;;;26.49;100.00
10348;BME280;5220;43.192;23.284;2023-06-26T09:32:45;96742.09;;;26.84;100.00
10348;BME280;5220;43.192;23.284;2023-06-26T09:35:13;96734.25;;;26.89;100.00
10348;BME280;5220;43.192;23.284;2023-06-26T09:37:40;96740.97;;;26.66;100.00
10348;BME280;5220;43.192;23.284;2023-06-26T09:40:08;96740.47;;;26.83;100.00
10348;BME280;5220;43.192;23.284;2023-06-26T09:42:35;96744.34;;;26.87;100.00
10348;BME280;5220;43.192;23.284;2023-06-26T09:45:04;96744.78;;;26.84;100.00
10348;BME280;5220;43.192;23.284;2023-06-26T09:47:32;96746.19;;;26.86;100.00
10348;BME280;5220;43.192;23.284;2023-06-26T09:50:02;96740.50;;;26.76;100.00
10348;BME280;5220;43.192;23.284;2023-06-26T09:52:30;96747.72;;;26.69;100.00
10348;BME280;5220;43.192;23.284;2023-06-26T09:55:10;96744.53;;;26.85;100.00
10348;BME280;5220;43.192;23.284;2023-06-26T09:57:37;96756.38;;;26.96;100.00
10348;BME280;5220;43.192;23.284;2023-06-26T10:00:07;96746.22;;;27.04;100.00
10348;BME280;5220;43.192;23.284;2023-06-26T10:02:35;96752.66;;;26.97;100.00
10348;BME280;5220;43.192;23.284;2023-06-26T10:05:02;96736.94;;;27.07;100.00
10348;BME280;5220;43.192;23.284;2023-06-26T10:07:29;96731.44;;;26.84;100.00
10348;BME280;5220;43.192;23.284;2023-06-26T10:09:56;96731.56;;;26.89;100.00
10348;BME280;5220;43.192;23.284;2023-06-26T10:12:28;96739.13;;;26.67;100.00
10348;BME280;5220;43.192;23.284;2023-06-26T10:14:56;96739.72;;;26.94;100.00
10348;BME280;5220;43.192;23.284;2023-06-26T10:17:27;96739.16;;;26.92;100.00
10348;BME280;5220;43.192;23.284;2023-06-26T10:19:55;96734.25;;;26.89;100.00
10348;BME280;5220;43.192;23.284;2023-06-26T10:22:27;96729.06;;;26.38;100.00
10348;BME280;5220;43.192;23.284;2023-06-26T10:24:56;96724.97;;;26.66;100.00
10348;BME280;5220;43.192;23.284;2023-06-26T10:27:27;96734.94;;;26.78;100.00
10348;BME280;5220;43.192;23.284;2023-06-26T10:29:55;96732.50;;;27.01;100.00
10348;BME280;5220;43.192;23.284;2023-06-26T10:32:26;96728.81;;;27.20;100.00
10348;BME280;5220;43.192;23.284;2023-06-26T10:34:53;96727.78;;;27.39;100.00
10348;BME280;5220;43.192;23.284;2023-06-26T10:37:40;96725.94;;;27.58;100.00
10348;BME280;5220;43.192;23.284;2023-06-26T10:40:08;96727.09;;;27.07;100.00
10348;BME280;5220;43.192;23.284;2023-06-26T10:42:35;96724.22;;;27.27;100.00
10348;BME280;5220;43.192;23.284;2023-06-26T10:45:09;96719.00;;;27.32;100.00
10348;BME280;5220;43.192;23.284;2023-06-26T10:47:40;96714.13;;;27.29;100.00
10348;BME280;5220;43.192;23.284;2023-06-26T10:50:19;96716.00;;;27.47;100.00
10348;BME280;5220;43.192;23.284;2023-06-26T10:53:07;96711.81;;;27.14;100.00
10348;BME280;5220;43.192;23.284;2023-06-26T10:55:34;96708.97;;;27.27;100.00
10348;BME280;5220;43.192;23.284;2023-06-26T10:58:01;96709.19;;;26.90;100.00
10348;BME280;5220;43.192;23.284;2023-06-26T11:00:28;96708.47;;;27.01;100.00
10348;BME280;5220;43.192;23.284;2023-06-26T11:02:56;96713.53;;;27.27;100.00
10348;BME280;5220;43.192;23.284;2023-06-26T11:05:24;96712.81;;;26.95;100.00
10348;BME280;5220;43.192;23.284;2023-06-26T11:08:06;96710.47;;;27.05;100.00
10348;BME280;5220;43.192;23.284;2023-06-26T11:10:50;96706.75;;;27.06;100.00
10348;BME280;5220;43.192;23.284;2023-06-26T11:13:18;96709.22;;;27.26;100.00
10348;BME280;5220;43.192;23.284;2023-06-26T11:15:45;96705.03;;;27.12;100.00
10348;BME280;5220;43.192;23.284;2023-06-26T11:18:13;96702.09;;;27.02;100.00
10348;BME280;5220;43.192;23.284;2023-06-26T11:20:40;96698.66;;;27.31;100.00
10348;BME280;5220;43.192;23.284;2023-06-26T11:23:07;96693.31;;;27.31;100.00
10348;BME280;5220;43.192;23.284;2023-06-26T11:25:35;96693.44;;;27.43;100.00
10348;BME280;5220;43.192;23.284;2023-06-26T11:28:03;96690.91;;;27.48;100.00
10348;BME280;5220;43.192;23.284;2023-06-26T11:30:30;96701.66;;;27.23;100.00
10348;BME280;5220;43.192;23.284;2023-06-26T11:33:05;96695.88;;;27.44;100.00
10348;BME280;5220;43.192;23.284;2023-06-26T11:35:34;96701.28;;;27.19;100.00
10348;BME280;5220;43.192;23.284;2023-06-26T11:38:03;96696.69;;;27.08;100.00
10348;BME280;5220;43.192;23.284;2023-06-26T11:40:30;96700.00;;;27.22;100.00
10348;BME280;5220;43.192;23.284;2023-06-26T11:42:58;96697.19;;;27.35;100.00
10348;BME280;5220;43.192;23.284;2023-06-26T11:45:28;96701.66;;;27.05;100.00
10348;BME280;5220;43.192;23.284;2023-06-26T11:47:55;96695.72;;;27.21;100.00
10348;BME280;5220;43.192;23.284;2023-06-26T11:50:23;96706.47;;;27.14;100.00
10348;BME280;5220;43.192;23.284;2023-06-26T11:52:54;96701.50;;;27.18;100.00
10348;BME280;5220;43.192;23.284;2023-06-26T11:55:22;96698.47;;;27.33;100.00
10348;BME280;5220;43.192;23.284;2023-06-26T11:57:49;96702.75;;;27.15;100.00
10348;BME280;5220;43.192;23.284;2023-06-26T12:00:16;96696.81;;;27.13;100.00
10348;BME280;5220;43.192;23.284;2023-06-26T12:02:44;96690.84;;;27.54;100.00
10348;BME280;5220;43.192;23.284;2023-06-26T12:05:11;96705.34;;;27.76;100.00
10348;BME280;5220;43.192;23.284;2023-06-26T12:07:38;96700.69;;;27.54;100.00
10348;BME280;5220;43.192;23.284;2023-06-26T12:10:09;96700.81;;;27.41;100.00
10348;BME280;5220;43.192;23.284;2023-06-26T12:12:37;96697.13;;;27.42;100.00
10348;BME280;5220;43.192;23.284;2023-06-26T12:15:06;96701.97;;;27.33;100.00
10348;BME280;5220;43.192;23.284;2023-06-26T12:17:37;96704.91;;;27.07;100.00
10348;BME280;5220;43.192;23.284;2023-06-26T12:20:05;96705.66;;;27.32;100.00
10348;BME280;5220;43.192;23.284;2023-06-26T12:22:35;96700.03;;;27.58;100.00
10348;BME280;5220;43.192;23.284;2023-06-26T12:25:02;96699.34;;;27.63;100.00
10348;BME280;5220;43.192;23.284;2023-06-26T12:27:31;96696.53;;;27.76;100.00
10348;BME280;5220;43.192;23.284;2023-06-26T12:29:57;96702.06;;;27.74;100.00
10348;BME280;5220;43.192;23.284;2023-06-26T12:32:25;96702.75;;;28.00;100.00
10348;BME280;5220;43.192;23.284;2023-06-26T12:34:52;96702.63;;;27.95;100.00
10348;BME280;5220;43.192;23.284;2023-06-26T12:37:19;96704.72;;;28.11;100.00
10348;BME280;5220;43.192;23.284;2023-06-26T12:39:47;96704.38;;;27.89;100.00
10348;BME280;5220;43.192;23.284;2023-06-26T12:42:15;96705.94;;;27.78;100.00
10348;BME280;5220;43.192;23.284;2023-06-26T12:44:43;96705.59;;;27.57;99.43
10348;BME280;5220;43.192;23.284;2023-06-26T12:47:10;96704.75;;;27.38;99.66
10348;BME280;5220;43.192;23.284;2023-06-26T12:49:40;96699.28;;;27.69;98.95
10348;BME280;5220;43.192;23.284;2023-06-26T12:52:08;96696.75;;;27.38;98.97
10348;BME280;5220;43.192;23.284;2023-06-26T12:54:36;96697.19;;;27.35;100.00